This is the latest recevied weather packets stored in our database for station/object KB5SMY. If no packets are shown the sender has not sent any weather packets the latest 10 day(s).
| Time | Temp. | Humidity | Pressure | Rain* | Wind** | Luminosity | Snow |
|---|---|---|---|---|---|---|---|
| 1777875604 | 16.67° C | 65% | 1014.6 hPa | 0 mm | - | 0 W/m² | - |
| 1777874404 | 17.22° C | 64% | 1014.6 hPa | 0 mm | - | 0 W/m² | - |
| 1777872604 | 17.22° C | 62% | 1015 hPa | 0 mm | - | 0 W/m² | - |
| 1777870331 | 17.78° C | 60% | 1015.5 hPa | 0 mm | - | 0 W/m² | - |
| 1777852204 | 26.11° C | 30% | 1015.3 hPa | 0 mm | - | 128 W/m² | - |
| 1777851604 | 26.11° C | 31% | 1015.4 hPa | 0 mm | - | 153 W/m² | - |
| 1777851004 | 26.67° C | 30% | 1015.3 hPa | 0 mm | - | 172 W/m² | - |
| 1777848604 | 27.22° C | 31% | 1015.6 hPa | 0 mm | - | 499 W/m² | - |
| 1777846804 | 27.22° C | 30% | 1015.6 hPa | 0 mm | - | 591 W/m² | - |
| 1777845604 | 27.78° C | 29% | 1015.9 hPa | 0 mm | - | 617 W/m² | - |
| 1777842732 | 27.78° C | 29% | 1016.9 hPa | 0 mm | - | 738 W/m² | - |
| 1777839604 | 27.22° C | 31% | 1017.7 hPa | 0 mm | - | 870 W/m² | - |
| 1777838531 | 27.22° C | 30% | 1018.1 hPa | 0 mm | - | 979 W/m² | - |
| 1777837804 | 27.22° C | 30% | 1018.3 hPa | 0 mm | - | 951 W/m² | - |
| 1777836604 | 27.22° C | 31% | 1018.5 hPa | 0 mm | - | 1005 W/m² | - |
| 1777836004 | 27.22° C | 30% | 1018.7 hPa | 0 mm | - | 1014 W/m² | - |
| 1777835531 | 27.22° C | 34% | 1019 hPa | 0 mm | - | 986 W/m² | - |
| 1777833605 | 26.67° C | 33% | 1019.4 hPa | 0 mm | - | 1035 W/m² | - |
| 1777832404 | 27.22° C | 34% | 1019.7 hPa | 0 mm | - | 1016 W/m² | - |
| 1777831804 | 26.67° C | 34% | 1019.8 hPa | 0 mm | - | 1016 W/m² | - |
| 1777826404 | 25.56° C | 44% | 1021.4 hPa | 0 mm | - | 893 W/m² | - |
| 1777825804 | 25° C | 43% | 1021.4 hPa | 0 mm | - | 870 W/m² | - |
| 1777822204 | 22.22° C | 50% | 1021.8 hPa | 0 mm | - | 712 W/m² | - |
| 1777821004 | 21.67° C | 54% | 1021.8 hPa | 0 mm | - | 564 W/m² | - |
| 1777815004 | 15° C | 76% | 1021.4 hPa | 0 mm | - | 297 W/m² | - |
* Rain latest hour (hover to see other rain measurements)
** Current wind speed in m/s (hover to see current wind gust speed)